createdAt,value
2017-11-29T00:01:46.920Z,14.98
2017-11-29T00:04:15.411Z,13.13
2017-11-29T00:06:44.599Z,13.18
2017-11-29T00:09:13.341Z,10.88
2017-11-29T00:11:42.158Z,12.95
2017-11-29T00:14:10.893Z,13.10
2017-11-29T00:16:39.658Z,12.40
2017-11-29T00:19:08.407Z,11.20
2017-11-29T00:21:37.182Z,9.52
2017-11-29T00:24:05.951Z,9.50
2017-11-29T00:26:34.740Z,10.13
2017-11-29T00:29:03.520Z,9.68
2017-11-29T00:31:32.294Z,10.02
2017-11-29T00:34:01.828Z,10.25
2017-11-29T00:36:30.612Z,9.02
2017-11-29T00:38:58.712Z,15.13
2017-11-29T00:41:27.150Z,14.75
2017-11-29T00:43:56.336Z,14.13
2017-11-29T00:46:25.911Z,15.60
2017-11-29T00:48:54.677Z,14.60
2017-11-29T00:51:23.449Z,13.23
2017-11-29T00:53:52.205Z,12.88
2017-11-29T00:56:21.007Z,12.15
2017-11-29T00:58:50.353Z,13.00
2017-11-29T01:01:19.715Z,10.98
2017-11-29T01:03:49.112Z,11.88
2017-11-29T01:06:18.643Z,14.02
2017-11-29T01:08:47.415Z,11.40
2017-11-29T01:11:16.951Z,11.30
2017-11-29T01:13:45.732Z,10.73
2017-11-29T01:16:14.483Z,13.27
2017-11-29T01:18:43.236Z,9.90
2017-11-29T01:21:12.041Z,10.38
2017-11-29T01:23:40.999Z,12.43
2017-11-29T01:26:09.774Z,9.30
2017-11-29T01:28:38.515Z,9.50
2017-11-29T01:31:07.352Z,10.30
2017-11-29T01:33:36.075Z,8.88
2017-11-29T01:36:04.501Z,8.13
2017-11-29T01:38:34.055Z,9.80
2017-11-29T01:41:02.634Z,9.40
2017-11-29T01:43:31.197Z,9.63
2017-11-29T01:45:59.768Z,9.05
2017-11-29T01:48:29.286Z,9.95
2017-11-29T01:50:58.256Z,9.90
2017-11-29T01:53:27.807Z,10.05
2017-11-29T01:55:56.538Z,11.40
2017-11-29T01:58:25.318Z,12.45
2017-11-29T02:00:54.265Z,11.48
2017-11-29T02:03:23.079Z,13.85
2017-11-29T02:05:51.199Z,11.15
2017-11-29T02:08:19.956Z,13.13
2017-11-29T02:10:48.679Z,13.10
2017-11-29T02:13:17.447Z,15.20
2017-11-29T02:15:46.527Z,13.82
2017-11-29T02:18:15.275Z,13.18
2017-11-29T02:20:43.319Z,13.88
2017-11-29T02:23:11.822Z,11.15
2017-11-29T02:25:40.658Z,9.98
2017-11-29T02:28:08.767Z,11.10
2017-11-29T02:30:36.879Z,11.25
2017-11-29T02:33:04.941Z,13.02
2017-11-29T02:35:33.052Z,10.73
2017-11-29T02:38:01.496Z,9.80
2017-11-29T02:40:52.315Z,8.70
2017-11-29T02:43:20.222Z,8.55
2017-11-29T02:45:48.318Z,8.52
2017-11-29T02:48:17.171Z,8.85
2017-11-29T02:50:45.103Z,8.55
2017-11-29T02:53:13.229Z,8.43
2017-11-29T02:55:41.545Z,7.70
2017-11-29T02:58:09.696Z,8.55
2017-11-29T03:00:37.817Z,9.73
2017-11-29T03:03:07.351Z,8.88
2017-11-29T03:05:36.099Z,8.13
2017-11-29T03:08:04.856Z,7.87
2017-11-29T03:10:34.159Z,9.07
2017-11-29T03:13:03.707Z,8.82
2017-11-29T03:15:32.487Z,6.80
2017-11-29T03:18:01.304Z,8.05
2017-11-29T03:20:30.063Z,7.97
2017-11-29T03:22:58.828Z,7.00
2017-11-29T03:25:27.634Z,7.00
2017-11-29T03:27:57.148Z,7.30
2017-11-29T03:30:25.876Z,7.37
2017-11-29T03:32:54.671Z,8.48
2017-11-29T03:35:23.442Z,6.45
2017-11-29T03:37:52.236Z,7.65
2017-11-29T03:40:20.997Z,8.25
2017-11-29T03:42:49.708Z,7.50
2017-11-29T03:45:18.416Z,6.90
2017-11-29T03:47:47.368Z,7.43
2017-11-29T03:50:17.034Z,6.70
2017-11-29T03:52:45.779Z,6.65
2017-11-29T03:55:14.568Z,7.87
2017-11-29T03:57:43.351Z,7.00
2017-11-29T04:00:12.122Z,6.03
2017-11-29T04:02:40.895Z,6.50
2017-11-29T04:05:10.444Z,6.62
2017-11-29T04:07:39.356Z,6.93
2017-11-29T04:10:07.819Z,6.15
2017-11-29T04:12:36.307Z,6.80
2017-11-29T04:15:04.357Z,6.60
2017-11-29T04:17:32.740Z,6.28
2017-11-29T04:20:01.468Z,5.97
2017-11-29T04:22:29.944Z,7.22
2017-11-29T04:24:58.679Z,6.62
2017-11-29T04:27:27.104Z,6.43
2017-11-29T04:29:55.902Z,6.78
2017-11-29T04:32:24.642Z,6.20
2017-11-29T04:34:54.195Z,6.85
2017-11-29T04:37:22.807Z,6.12
2017-11-29T04:39:51.369Z,6.70
2017-11-29T04:42:20.133Z,5.78
2017-11-29T04:44:48.893Z,7.15
2017-11-29T04:47:18.429Z,7.57
2017-11-29T04:49:46.476Z,6.60
2017-11-29T04:52:14.587Z,6.00
2017-11-29T04:54:43.487Z,6.47
2017-11-29T04:57:12.259Z,6.65
2017-11-29T04:59:41.029Z,6.22
2017-11-29T05:02:09.177Z,6.55
2017-11-29T05:04:38.326Z,6.05
2017-11-29T05:07:06.793Z,6.05
2017-11-29T05:09:35.560Z,6.20
2017-11-29T05:12:03.628Z,6.12
2017-11-29T05:14:32.505Z,5.95
2017-11-29T05:17:01.400Z,6.25
2017-11-29T05:19:29.775Z,5.45
2017-11-29T05:21:58.261Z,6.60
2017-11-29T05:24:27.457Z,6.85
2017-11-29T05:26:55.692Z,6.22
2017-11-29T05:29:23.771Z,5.55
2017-11-29T05:31:52.234Z,5.78
2017-11-29T05:34:20.374Z,5.68
2017-11-29T05:36:49.049Z,6.47
2017-11-29T05:39:18.271Z,6.72
2017-11-29T05:41:46.693Z,5.75
2017-11-29T05:44:14.835Z,6.28
2017-11-29T05:46:42.999Z,6.30
2017-11-29T05:49:11.733Z,5.78
2017-11-29T05:51:39.835Z,6.65
2017-11-29T05:54:08.900Z,5.75
2017-11-29T05:56:36.992Z,7.00
2017-11-29T05:59:05.071Z,5.68
2017-11-29T06:05:05.347Z,7.30
2017-11-29T15:08:36.459Z,11.05
2017-11-29T15:11:25.804Z,11.00
2017-11-29T15:16:49.465Z,12.10
2017-11-29T15:28:16.228Z,11.75
2017-11-29T15:39:38.546Z,16.60
2017-11-29T15:42:08.266Z,16.62
2017-11-29T15:44:47.865Z,16.05
2017-11-29T16:01:48.930Z,16.27
2017-11-29T16:04:20.860Z,15.73
2017-11-29T16:06:53.025Z,16.02
2017-11-29T16:09:22.014Z,14.52
2017-11-29T16:11:55.382Z,14.50
2017-11-29T16:14:38.542Z,16.05
2017-11-29T16:17:07.383Z,18.15
2017-11-29T16:22:32.072Z,12.95
2017-11-29T16:28:18.818Z,13.52
2017-11-29T16:31:19.484Z,13.52
2017-11-29T16:33:48.200Z,12.55
2017-11-29T16:36:16.671Z,16.77
2017-11-29T16:38:46.251Z,16.15
2017-11-29T16:41:15.293Z,16.30
2017-11-29T16:43:43.946Z,16.08
2017-11-29T16:46:13.639Z,14.10
2017-11-29T16:48:42.507Z,16.12
2017-11-29T16:51:11.247Z,17.48
2017-11-29T16:53:40.790Z,15.52
2017-11-29T16:56:09.578Z,14.32
2017-11-29T17:12:44.960Z,14.68
2017-11-29T17:53:16.981Z,14.85
2017-11-29T17:55:48.907Z,15.30
2017-11-29T17:58:26.232Z,16.98
2017-11-29T18:00:54.892Z,15.65
2017-11-29T18:03:24.516Z,14.52
2017-11-29T18:06:05.671Z,15.60
2017-11-29T18:15:24.764Z,14.02
2017-11-29T18:26:48.469Z,14.75
2017-11-29T18:29:19.124Z,14.43
2017-11-29T18:31:49.531Z,14.25
2017-11-29T18:39:40.183Z,11.43
2017-11-29T18:42:09.325Z,10.32
2017-11-29T18:44:41.951Z,9.18
2017-11-29T18:47:24.350Z,14.60
2017-11-29T18:49:54.149Z,13.50
2017-11-29T18:52:23.116Z,11.85
2017-11-29T18:54:52.131Z,12.02
2017-11-29T18:57:20.994Z,10.70
2017-11-29T18:59:49.926Z,11.82
2017-11-29T19:02:19.036Z,13.50
2017-11-29T19:04:47.984Z,10.85
2017-11-29T19:07:16.523Z,10.50
2017-11-29T19:09:45.139Z,11.00
2017-11-29T19:12:15.631Z,11.90
2017-11-29T19:14:44.471Z,11.85
2017-11-29T19:17:13.003Z,10.77
2017-11-29T19:19:42.591Z,10.30
2017-11-29T19:22:11.153Z,9.90
2017-11-29T19:24:39.949Z,11.07
2017-11-29T19:27:08.725Z,9.68
2017-11-29T19:29:37.611Z,9.85
2017-11-29T19:32:05.901Z,10.60
2017-11-29T19:34:34.655Z,8.43
2017-11-29T19:37:03.472Z,9.00
2017-11-29T19:39:32.284Z,7.65
2017-11-29T19:42:01.096Z,9.05
2017-11-29T19:44:29.928Z,10.50
2017-11-29T19:46:58.759Z,10.70
2017-11-29T19:49:27.518Z,9.38
2017-11-29T19:51:56.287Z,9.25
2017-11-29T19:54:25.179Z,10.68
2017-11-29T19:56:54.012Z,10.45
2017-11-29T19:59:23.036Z,10.68
2017-11-29T20:01:51.807Z,11.10
2017-11-29T20:04:20.662Z,12.45
2017-11-29T20:06:49.318Z,9.90
